Time;durP1;ratioP1;P1;durP2;ratioP2;P2;SDS_P1;SDS_P2;PMS_P1;PMS_P2;Temp;Humidity;BMP_temperature;BMP_pressure;BME280_temperature;BME280_humidity;BME280_pressure;Samples;Min_cycle;Max_cycle;Signal;HPM_P1;HPM_P2
2022/03/03 00:02:06;;;;;;;13.83;8.03;;;;;;;;;;4447241;32;20302;-57
2022/03/03 00:04:32;;;;;;;11.60;8.00;;;;;;;;;;4447323;32;20220;-56
2022/03/03 00:06:58;;;;;;;11.17;7.70;;;;;;;;;;4447178;32;20553;-54
2022/03/03 00:09:23;;;;;;;14.87;8.47;;;;;;;;;;4447127;32;20344;-54
2022/03/03 00:11:49;;;;;;;12.67;8.20;;;;;;;;;;4447353;32;20321;-56
2022/03/03 00:14:15;;;;;;;29.53;12.63;;;;;;;;;;4447199;32;20259;-55
2022/03/03 00:16:40;;;;;;;29.60;14.07;;;;;;;;;;4446862;32;20291;-55
2022/03/03 00:19:06;;;;;;;20.77;11.37;;;;;;;;;;4447032;32;20371;-55
2022/03/03 00:21:31;;;;;;;21.30;10.47;;;;;;;;;;4462372;32;20330;-54
2022/03/03 00:23:57;;;;;;;15.87;9.60;;;;;;;;;;4462854;32;20360;-56
2022/03/03 00:26:23;;;;;;;16.10;9.93;;;;;;;;;;4462887;32;20302;-56
2022/03/03 00:28:48;;;;;;;14.10;8.53;;;;;;;;;;4462839;32;20231;-54
2022/03/03 00:31:14;;;;;;;12.10;8.13;;;;;;;;;;4462458;32;20303;-54
2022/03/03 00:33:39;;;;;;;10.37;7.40;;;;;;;;;;4452387;32;20228;-54
2022/03/03 00:36:05;;;;;;;11.97;8.53;;;;;;;;;;4447240;32;20327;-53
2022/03/03 00:38:30;;;;;;;12.20;8.07;;;;;;;;;;4446887;32;20302;-53
2022/03/03 00:40:56;;;;;;;11.80;8.33;;;;;;;;;;4447077;32;20224;-54
2022/03/03 00:43:22;;;;;;;12.37;8.10;;;;;;;;;;4446834;32;20394;-53
2022/03/03 00:45:47;;;;;;;11.60;8.20;;;;;;;;;;4446840;32;20372;-53
2022/03/03 00:48:13;;;;;;;9.17;7.30;;;;;;;;;;4432994;32;20327;-53
2022/03/03 00:50:38;;;;;;;14.53;8.57;;;;;;;;;;4433192;32;20229;-53
2022/03/03 00:53:04;;;;;;;16.47;10.00;;;;;;;;;;4446839;32;20411;-55
2022/03/03 00:55:30;;;;;;;21.23;12.33;;;;;;;;;;4446991;32;20273;-53
2022/03/03 00:57:55;;;;;;;17.67;10.97;;;;;;;;;;4446963;32;20287;-54
2022/03/03 01:00:21;;;;;;;26.23;10.83;;;;;;;;;;4449578;32;20354;-54
2022/03/03 01:02:50;;;;;;;20.47;10.93;;;;;;;;;;4449845;32;20530;-54
2022/03/03 01:05:16;;;;;;;13.50;8.40;;;;;;;;;;4450001;32;20291;-53
2022/03/03 01:07:42;;;;;;;13.87;8.53;;;;;;;;;;4448625;32;20306;-55
2022/03/03 01:10:09;;;;;;;11.00;7.67;;;;;;;;;;4448406;32;20310;-53
2022/03/03 01:12:35;;;;;;;11.13;8.70;;;;;;;;;;4450136;32;20201;-53
2022/03/03 01:15:02;;;;;;;11.70;7.77;;;;;;;;;;4449631;32;20366;-53
2022/03/03 01:17:27;;;;;;;13.33;8.43;;;;;;;;;;4449971;32;20631;-54
2022/03/03 01:19:53;;;;;;;12.00;8.27;;;;;;;;;;4454117;32;20286;-54
2022/03/03 01:22:18;;;;;;;13.53;8.73;;;;;;;;;;4465226;32;20718;-56
2022/03/03 01:24:45;;;;;;;13.80;8.50;;;;;;;;;;4465314;32;20256;-55
2022/03/03 01:27:11;;;;;;;10.13;6.90;;;;;;;;;;4465185;32;20310;-53
2022/03/03 01:29:37;;;;;;;10.47;7.33;;;;;;;;;;4465486;32;20313;-54
2022/03/03 01:32:02;;;;;;;12.27;8.10;;;;;;;;;;4464798;32;20331;-55
2022/03/03 01:34:29;;;;;;;10.27;7.60;;;;;;;;;;4465193;32;20548;-53
2022/03/03 01:36:54;;;;;;;11.83;7.83;;;;;;;;;;4465061;32;20278;-53
2022/03/03 01:39:20;;;;;;;15.60;8.37;;;;;;;;;;4450709;32;20310;-54
2022/03/03 01:41:45;;;;;;;10.07;7.20;;;;;;;;;;4464516;32;20307;-53
2022/03/03 01:44:11;;;;;;;11.33;7.30;;;;;;;;;;4464884;32;20256;-57
2022/03/03 01:46:50;;;;;;;14.33;7.80;;;;;;;;;;4464793;32;20298;-56
2022/03/03 01:49:16;;;;;;;11.30;6.70;;;;;;;;;;4464968;32;20262;-55
2022/03/03 01:51:41;;;;;;;14.37;7.67;;;;;;;;;;4464822;32;20283;-55
2022/03/03 01:54:06;;;;;;;10.27;7.90;;;;;;;;;;4464681;32;20244;-54
2022/03/03 01:56:32;;;;;;;10.07;6.97;;;;;;;;;;4464831;32;20301;-54
2022/03/03 01:58:58;;;;;;;7.87;6.47;;;;;;;;;;4464710;32;20227;-52
2022/03/03 02:01:24;;;;;;;12.97;7.37;;;;;;;;;;4464917;32;20288;-54
2022/03/03 02:03:49;;;;;;;11.17;7.47;;;;;;;;;;4464717;32;20322;-54
2022/03/03 02:06:16;;;;;;;10.67;6.43;;;;;;;;;;4464952;32;20734;-55
2022/03/03 02:08:41;;;;;;;7.23;6.27;;;;;;;;;;4464688;32;20244;-54
2022/03/03 02:11:07;;;;;;;10.47;7.00;;;;;;;;;;4463502;32;20277;-53
2022/03/03 02:13:34;;;;;;;7.63;6.40;;;;;;;;;;4464631;32;20290;-53
2022/03/03 02:15:59;;;;;;;10.87;7.43;;;;;;;;;;4464386;32;20615;-54
2022/03/03 02:18:25;;;;;;;10.17;6.63;;;;;;;;;;4464887;32;20340;-54
2022/03/03 02:20:50;;;;;;;11.07;8.03;;;;;;;;;;4449889;32;20387;-53
2022/03/03 02:23:18;;;;;;;11.17;7.50;;;;;;;;;;4464330;32;20295;-54
2022/03/03 02:25:44;;;;;;;10.30;7.30;;;;;;;;;;4464701;32;20283;-53
2022/03/03 02:28:09;;;;;;;10.90;7.60;;;;;;;;;;4464727;32;20564;-53
2022/03/03 02:30:35;;;;;;;12.27;8.23;;;;;;;;;;4464030;32;20291;-54
2022/03/03 02:33:01;;;;;;;15.67;7.80;;;;;;;;;;4457914;32;20415;-55
2022/03/03 02:35:29;;;;;;;15.33;8.13;;;;;;;;;;4448559;32;20252;-53
2022/03/03 02:37:55;;;;;;;9.23;7.40;;;;;;;;;;4462122;32;20299;-54
2022/03/03 02:40:21;;;;;;;9.17;6.37;;;;;;;;;;4464083;32;20329;-54
2022/03/03 02:42:51;;;;;;;11.90;7.13;;;;;;;;;;4464155;32;20623;-54
2022/03/03 02:45:17;;;;;;;10.90;7.87;;;;;;;;;;4463998;32;20283;-54
2022/03/03 02:47:45;;;;;;;12.70;7.80;;;;;;;;;;4449758;32;20781;-55
2022/03/03 02:50:11;;;;;;;10.90;7.47;;;;;;;;;;4464095;32;20311;-53
2022/03/03 02:52:37;;;;;;;10.20;7.40;;;;;;;;;;4464073;32;20236;-56
2022/03/03 02:55:04;;;;;;;15.93;9.27;;;;;;;;;;4463748;32;20261;-55
2022/03/03 03:00:14;;;;;;;14.37;7.93;;;;;;;;;;4463993;32;20331;-54
2022/03/03 03:02:40;;;;;;;11.73;8.47;;;;;;;;;;4451276;32;20287;-55
2022/03/03 03:05:05;;;;;;;14.50;9.77;;;;;;;;;;4448321;32;20231;-54
2022/03/03 03:07:31;;;;;;;11.07;7.50;;;;;;;;;;4448477;32;20323;-55
2022/03/03 03:09:56;;;;;;;13.33;8.20;;;;;;;;;;4447798;32;20253;-54
2022/03/03 03:12:22;;;;;;;11.17;7.87;;;;;;;;;;4447028;32;20323;-55
2022/03/03 03:14:47;;;;;;;15.33;8.17;;;;;;;;;;4448004;32;20279;-55
2022/03/03 03:17:13;;;;;;;10.77;8.60;;;;;;;;;;4448061;32;20306;-54
2022/03/03 03:19:38;;;;;;;13.23;8.33;;;;;;;;;;4451120;32;20240;-55
2022/03/03 03:22:04;;;;;;;10.80;7.60;;;;;;;;;;4462987;32;20275;-55
2022/03/03 03:24:30;;;;;;;7.30;6.47;;;;;;;;;;4449153;32;20262;-55
2022/03/03 03:26:55;;;;;;;9.37;6.53;;;;;;;;;;4449342;32;20248;-55
2022/03/03 03:29:21;;;;;;;8.90;6.40;;;;;;;;;;4463380;32;20299;-55
2022/03/03 03:31:46;;;;;;;10.10;6.90;;;;;;;;;;4463772;32;20515;-54
2022/03/03 03:34:12;;;;;;;9.50;7.13;;;;;;;;;;4448508;32;20220;-55
2022/03/03 03:36:38;;;;;;;10.20;7.53;;;;;;;;;;4433789;32;20655;-56
2022/03/03 03:39:04;;;;;;;12.93;9.00;;;;;;;;;;4447577;32;20300;-54
2022/03/03 03:41:30;;;;;;;13.57;8.80;;;;;;;;;;4447803;32;20287;-54
2022/03/03 03:43:55;;;;;;;15.30;8.73;;;;;;;;;;4447611;32;20225;-54
2022/03/03 03:46:21;;;;;;;18.70;9.60;;;;;;;;;;4447927;32;20329;-55
2022/03/03 03:48:46;;;;;;;12.37;8.63;;;;;;;;;;4447589;32;20240;-55
2022/03/03 03:51:12;;;;;;;16.47;8.97;;;;;;;;;;4447522;32;20780;-56
2022/03/03 03:53:38;;;;;;;16.63;9.50;;;;;;;;;;4447399;32;20621;-54
2022/03/03 03:56:04;;;;;;;20.43;10.80;;;;;;;;;;4447812;32;20266;-54
2022/03/03 03:58:29;;;;;;;22.53;9.83;;;;;;;;;;4447643;32;20295;-55
2022/03/03 04:00:55;;;;;;;12.03;9.20;;;;;;;;;;4447192;32;20213;-54
2022/03/03 04:03:20;;;;;;;17.43;9.17;;;;;;;;;;4446484;32;20824;-55
2022/03/03 04:05:46;;;;;;;15.90;8.93;;;;;;;;;;4447490;32;20234;-54
2022/03/03 04:08:11;;;;;;;15.87;8.97;;;;;;;;;;4447460;32;20284;-54
2022/03/03 04:10:36;;;;;;;14.37;9.93;;;;;;;;;;4445920;32;20944;-55
2022/03/03 04:13:02;;;;;;;14.03;9.17;;;;;;;;;;4446097;32;20662;-54
2022/03/03 04:15:27;;;;;;;14.43;8.87;;;;;;;;;;4447263;32;20232;-55
2022/03/03 04:17:53;;;;;;;16.33;9.80;;;;;;;;;;4447305;32;20279;-55
2022/03/03 04:20:18;;;;;;;16.93;10.20;;;;;;;;;;4452984;32;20702;-56
2022/03/03 04:22:44;;;;;;;17.87;8.93;;;;;;;;;;4462133;32;20351;-55
2022/03/03 04:25:10;;;;;;;24.20;11.30;;;;;;;;;;4462424;32;20314;-53
2022/03/03 04:27:37;;;;;;;22.73;10.60;;;;;;;;;;4448737;32;20304;-53
2022/03/03 04:30:06;;;;;;;15.00;10.37;;;;;;;;;;4462203;32;20362;-54
2022/03/03 04:32:31;;;;;;;13.17;9.07;;;;;;;;;;4462721;32;20464;-54
2022/03/03 04:34:56;;;;;;;13.57;8.53;;;;;;;;;;4450943;32;20235;-54
2022/03/03 04:37:22;;;;;;;22.73;12.33;;;;;;;;;;4466184;32;20396;-54
2022/03/03 04:39:47;;;;;;;19.73;11.03;;;;;;;;;;4451802;32;20244;-53
2022/03/03 04:42:13;;;;;;;16.03;11.13;;;;;;;;;;4466161;32;20317;-54
2022/03/03 04:44:39;;;;;;;16.07;9.83;;;;;;;;;;4465698;32;20256;-54
2022/03/03 04:47:04;;;;;;;12.07;9.13;;;;;;;;;;4465611;32;20263;-54
2022/03/03 04:49:30;;;;;;;17.70;11.33;;;;;;;;;;4466054;32;20315;-54
2022/03/03 04:51:55;;;;;;;20.10;11.03;;;;;;;;;;4465734;32;20369;-54
2022/03/03 04:54:21;;;;;;;17.70;10.60;;;;;;;;;;4465465;32;20759;-53
2022/03/03 04:56:46;;;;;;;17.07;11.17;;;;;;;;;;4466076;32;20279;-55
2022/03/03 04:59:12;;;;;;;14.27;9.50;;;;;;;;;;4465838;32;20320;-54
2022/03/03 05:01:38;;;;;;;19.07;10.33;;;;;;;;;;4459816;32;20329;-55
2022/03/03 05:04:03;;;;;;;14.00;8.83;;;;;;;;;;4450008;32;20320;-53
2022/03/03 05:06:29;;;;;;;14.60;9.10;;;;;;;;;;4450303;32;20327;-55
2022/03/03 05:08:54;;;;;;;14.80;10.57;;;;;;;;;;4450102;32;20253;-54
2022/03/03 05:11:20;;;;;;;16.77;9.57;;;;;;;;;;4450192;32;20297;-55
2022/03/03 05:13:47;;;;;;;17.13;10.03;;;;;;;;;;4450506;32;20283;-53
2022/03/03 05:16:12;;;;;;;16.00;10.00;;;;;;;;;;4449715;32;20341;-54
2022/03/03 05:18:38;;;;;;;16.20;9.97;;;;;;;;;;4450041;32;20326;-53
2022/03/03 05:21:03;;;;;;;19.23;11.00;;;;;;;;;;4461835;32;20584;-54
2022/03/03 05:23:29;;;;;;;22.63;11.67;;;;;;;;;;4465412;32;20294;-54
2022/03/03 05:25:54;;;;;;;22.03;10.40;;;;;;;;;;4465224;32;20255;-54
2022/03/03 05:28:20;;;;;;;15.17;9.30;;;;;;;;;;4464681;32;20367;-55
2022/03/03 05:30:45;;;;;;;21.23;10.47;;;;;;;;;;4465121;32;20238;-55
2022/03/03 05:33:11;;;;;;;40.83;19.40;;;;;;;;;;4465299;32;20682;-55
2022/03/03 05:35:39;;;;;;;38.80;20.43;;;;;;;;;;4465002;32;20351;-53
2022/03/03 05:38:04;;;;;;;29.47;14.60;;;;;;;;;;4464992;32;20202;-53
2022/03/03 05:40:31;;;;;;;19.37;12.27;;;;;;;;;;4437613;32;20674;-53
2022/03/03 05:42:56;;;;;;;14.47;10.83;;;;;;;;;;4464913;32;20283;-54
2022/03/03 05:45:22;;;;;;;25.60;14.33;;;;;;;;;;4450340;32;20284;-53
2022/03/03 05:47:48;;;;;;;24.93;12.60;;;;;;;;;;4450534;32;20310;-53
2022/03/03 05:50:15;;;;;;;19.67;12.27;;;;;;;;;;4464889;32;20739;-53
2022/03/03 05:52:40;;;;;;;15.13;10.33;;;;;;;;;;4464801;32;20347;-55
2022/03/03 05:55:07;;;;;;;13.90;10.03;;;;;;;;;;4464382;32;20394;-54
2022/03/03 05:57:41;;;;;;;15.50;10.10;;;;;;;;;;4465132;32;20216;-54
2022/03/03 06:00:13;;;;;;;19.87;10.17;;;;;;;;;;4464833;32;20235;-55
2022/03/03 06:02:51;;;;;;;18.70;11.60;;;;;;;;;;4464314;32;20294;-54
2022/03/03 06:05:23;;;;;;;16.30;11.43;;;;;;;;;;4464370;32;20232;-55
2022/03/03 06:07:59;;;;;;;21.10;12.50;;;;;;;;;;4464703;32;20266;-54
2022/03/03 06:10:25;;;;;;;13.53;9.03;;;;;;;;;;4464503;32;20680;-54
2022/03/03 06:13:01;;;;;;;17.00;11.63;;;;;;;;;;4463516;32;20361;-53
2022/03/03 06:15:28;;;;;;;18.47;11.37;;;;;;;;;;4463775;32;20250;-53
2022/03/03 06:17:54;;;;;;;20.73;11.93;;;;;;;;;;4464268;32;20676;-53
2022/03/03 06:20:20;;;;;;;27.50;14.33;;;;;;;;;;4464244;32;20239;-55
2022/03/03 06:22:46;;;;;;;27.27;17.13;;;;;;;;;;4464276;32;20283;-56
2022/03/03 06:25:12;;;;;;;25.03;13.93;;;;;;;;;;4463504;32;20422;-54
2022/03/03 06:27:37;;;;;;;19.47;12.80;;;;;;;;;;4464212;32;20216;-54
2022/03/03 06:30:05;;;;;;;22.33;12.83;;;;;;;;;;4464145;32;20295;-57
2022/03/03 06:32:30;;;;;;;24.57;15.43;;;;;;;;;;4464328;32;20606;-54
2022/03/03 06:34:56;;;;;;;21.87;14.73;;;;;;;;;;4464221;32;20240;-53
2022/03/03 06:37:21;;;;;;;22.63;14.33;;;;;;;;;;4464228;32;20314;-55
2022/03/03 06:39:47;;;;;;;26.07;14.83;;;;;;;;;;4464122;32;20235;-53
2022/03/03 06:42:12;;;;;;;55.73;31.13;;;;;;;;;;4463883;32;20309;-56
2022/03/03 06:44:38;;;;;;;57.20;31.27;;;;;;;;;;4463906;32;20223;-54
2022/03/03 06:47:03;;;;;;;57.60;26.07;;;;;;;;;;4464028;32;20271;-54
2022/03/03 06:49:29;;;;;;;35.60;20.43;;;;;;;;;;4464138;32;20278;-55
2022/03/03 06:51:57;;;;;;;31.90;18.60;;;;;;;;;;4449579;32;20341;-54
2022/03/03 06:54:24;;;;;;;22.17;13.60;;;;;;;;;;4463911;32;20333;-55
2022/03/03 06:56:57;;;;;;;23.63;14.83;;;;;;;;;;4446129;32;20595;-53
2022/03/03 06:59:28;;;;;;;30.20;15.63;;;;;;;;;;4449712;32;20804;-53
2022/03/03 07:01:55;;;;;;;19.20;13.37;;;;;;;;;;4456083;32;20241;-54
2022/03/03 07:04:21;;;;;;;34.47;22.77;;;;;;;;;;4447974;32;20483;-54
2022/03/03 07:06:48;;;;;;;21.93;13.67;;;;;;;;;;4448386;32;20268;-55
2022/03/03 07:09:14;;;;;;;18.50;10.23;;;;;;;;;;4447947;32;20706;-54
2022/03/03 07:11:41;;;;;;;23.77;15.03;;;;;;;;;;4446960;32;20295;-54
2022/03/03 07:14:06;;;;;;;28.67;13.43;;;;;;;;;;4446757;32;20753;-54
2022/03/03 07:16:35;;;;;;;21.37;11.80;;;;;;;;;;4448541;32;20284;-55
2022/03/03 07:19:04;;;;;;;18.17;10.67;;;;;;;;;;4447943;32;20278;-54
2022/03/03 07:22:02;;;;;;;22.00;12.67;;;;;;;;;;4462707;32;20239;-55
2022/03/03 07:24:39;;;;;;;18.53;11.00;;;;;;;;;;4433357;32;20602;-54
2022/03/03 07:27:05;;;;;;;18.63;12.50;;;;;;;;;;4463335;32;20284;-54
2022/03/03 07:29:33;;;;;;;17.13;11.27;;;;;;;;;;4461594;32;20548;-54
2022/03/03 07:32:03;;;;;;;18.77;10.57;;;;;;;;;;4463525;32;20246;-54
2022/03/03 07:34:32;;;;;;;24.60;11.57;;;;;;;;;;4463566;32;20251;-54
2022/03/03 07:37:04;;;;;;;19.13;11.77;;;;;;;;;;4463196;32;20244;-55
2022/03/03 07:39:38;;;;;;;17.77;10.93;;;;;;;;;;4463494;32;20889;-55
2022/03/03 07:42:03;;;;;;;18.80;11.50;;;;;;;;;;4463220;32;20280;-55
2022/03/03 07:44:29;;;;;;;15.20;10.00;;;;;;;;;;4463377;32;20577;-55
2022/03/03 07:46:55;;;;;;;17.47;10.27;;;;;;;;;;4463115;32;20323;-55
2022/03/03 07:49:21;;;;;;;16.67;11.43;;;;;;;;;;4461827;32;20318;-54
2022/03/03 07:51:49;;;;;;;14.53;10.57;;;;;;;;;;4463003;32;20287;-54
2022/03/03 07:54:16;;;;;;;17.13;10.90;;;;;;;;;;4462813;32;20276;-54
2022/03/03 07:56:45;;;;;;;17.70;11.03;;;;;;;;;;4463068;32;20235;-55
2022/03/03 07:59:12;;;;;;;18.43;9.83;;;;;;;;;;4463046;32;20342;-55
2022/03/03 08:01:39;;;;;;;13.57;10.00;;;;;;;;;;4457153;32;20232;-55
2022/03/03 08:04:04;;;;;;;18.13;11.67;;;;;;;;;;4447590;32;20260;-55
2022/03/03 08:06:32;;;;;;;15.50;8.90;;;;;;;;;;4447755;32;20283;-56
2022/03/03 08:09:01;;;;;;;17.43;9.67;;;;;;;;;;4444809;32;20698;-54
2022/03/03 08:11:28;;;;;;;18.87;10.53;;;;;;;;;;4447159;32;20300;-54
2022/03/03 08:13:56;;;;;;;17.37;10.70;;;;;;;;;;4446060;32;20319;-55
2022/03/03 08:16:22;;;;;;;40.90;14.00;;;;;;;;;;4447617;32;20220;-54
2022/03/03 08:18:48;;;;;;;25.40;14.40;;;;;;;;;;4459402;32;20227;-54
2022/03/03 08:21:15;;;;;;;28.20;15.50;;;;;;;;;;4449050;32;20395;-56
2022/03/03 08:23:42;;;;;;;20.67;11.67;;;;;;;;;;4446171;32;20673;-56
2022/03/03 08:26:12;;;;;;;22.97;14.57;;;;;;;;;;4445103;32;20216;-56
2022/03/03 08:28:40;;;;;;;15.67;10.17;;;;;;;;;;4447488;32;20266;-57
2022/03/03 08:31:08;;;;;;;14.80;8.70;;;;;;;;;;4460336;32;20243;-56
2022/03/03 08:33:40;;;;;;;19.93;11.03;;;;;;;;;;4462215;32;20204;-56
2022/03/03 08:36:18;;;;;;;20.33;12.50;;;;;;;;;;4462409;32;20268;-56
2022/03/03 08:38:50;;;;;;;31.80;16.73;;;;;;;;;;4462823;32;20232;-56
2022/03/03 08:41:19;;;;;;;20.83;11.07;;;;;;;;;;4462652;32;20256;-56
2022/03/03 08:43:50;;;;;;;15.20;9.60;;;;;;;;;;4463093;32;20421;-57
2022/03/03 08:46:21;;;;;;;19.40;10.97;;;;;;;;;;4463168;32;20248;-56
2022/03/03 08:48:49;;;;;;;18.67;11.20;;;;;;;;;;4462869;32;20261;-55
2022/03/03 08:51:16;;;;;;;19.83;11.03;;;;;;;;;;4462226;32;20240;-56
2022/03/03 08:53:41;;;;;;;19.90;9.77;;;;;;;;;;4462551;32;20228;-55
2022/03/03 08:56:08;;;;;;;16.77;10.53;;;;;;;;;;4459748;32;20204;-55
2022/03/03 08:58:34;;;;;;;16.77;9.20;;;;;;;;;;4454049;32;21292;-55
2022/03/03 09:01:00;;;;;;;13.90;10.20;;;;;;;;;;4447011;32;20584;-56
2022/03/03 09:03:25;;;;;;;20.10;13.23;;;;;;;;;;4446722;32;20296;-55
2022/03/03 09:05:51;;;;;;;21.33;11.70;;;;;;;;;;4446912;32;20344;-55
2022/03/03 09:08:17;;;;;;;19.17;11.67;;;;;;;;;;4446859;32;20749;-56
2022/03/03 09:10:43;;;;;;;17.47;9.97;;;;;;;;;;4447141;32;20196;-56
2022/03/03 09:13:09;;;;;;;20.10;10.53;;;;;;;;;;4447000;32;20279;-58
2022/03/03 09:15:35;;;;;;;15.20;11.37;;;;;;;;;;4447045;32;20263;-56
2022/03/03 09:18:00;;;;;;;26.93;13.30;;;;;;;;;;4446616;32;20630;-57
2022/03/03 09:20:26;;;;;;;33.40;14.77;;;;;;;;;;4448081;32;20263;-55
2022/03/03 09:22:53;;;;;;;28.53;14.83;;;;;;;;;;4449879;32;20287;-56
2022/03/03 09:25:19;;;;;;;22.50;11.93;;;;;;;;;;4449690;32;20291;-54
2022/03/03 09:27:45;;;;;;;21.43;11.93;;;;;;;;;;4449627;32;20247;-55
2022/03/03 09:30:12;;;;;;;31.67;14.37;;;;;;;;;;4450148;32;20357;-55
2022/03/03 09:32:38;;;;;;;23.53;13.67;;;;;;;;;;4449687;32;20204;-57
2022/03/03 09:35:04;;;;;;;18.83;9.60;;;;;;;;;;4449485;32;20296;-55
2022/03/03 09:37:30;;;;;;;15.60;10.63;;;;;;;;;;4435288;32;20340;-54
2022/03/03 09:39:55;;;;;;;19.70;11.73;;;;;;;;;;4449457;32;20329;-55
2022/03/03 09:42:21;;;;;;;16.43;10.03;;;;;;;;;;4449735;32;20307;-54
2022/03/03 09:44:46;;;;;;;17.70;10.60;;;;;;;;;;4449870;32;20303;-56
2022/03/03 09:47:15;;;;;;;28.73;14.83;;;;;;;;;;4449405;32;20289;-59
2022/03/03 09:49:40;;;;;;;19.93;13.03;;;;;;;;;;4449600;32;20723;-56
2022/03/03 09:52:17;;;;;;;18.73;11.83;;;;;;;;;;4435126;32;20464;-57
2022/03/03 09:54:44;;;;;;;15.73;9.80;;;;;;;;;;4449665;32;20267;-57
2022/03/03 09:57:10;;;;;;;14.53;8.87;;;;;;;;;;4449425;32;20204;-57
2022/03/03 09:59:35;;;;;;;18.30;9.37;;;;;;;;;;4435335;32;20539;-56
2022/03/03 10:02:03;;;;;;;19.43;12.60;;;;;;;;;;4435144;32;20811;-57
2022/03/03 10:04:29;;;;;;;17.57;11.07;;;;;;;;;;4435507;32;20300;-57
2022/03/03 10:06:55;;;;;;;16.50;10.60;;;;;;;;;;4422507;32;20271;-58
2022/03/03 10:09:20;;;;;;;20.57;11.17;;;;;;;;;;4434442;32;20367;-56
2022/03/03 10:11:49;;;;;;;22.80;12.80;;;;;;;;;;4463178;32;20288;-56
2022/03/03 10:14:31;;;;;;;15.27;9.40;;;;;;;;;;4464280;32;20260;-57
2022/03/03 10:16:56;;;;;;;16.10;10.10;;;;;;;;;;4464291;32;20592;-55
2022/03/03 10:19:22;;;;;;;16.37;10.27;;;;;;;;;;4463485;32;20293;-55
2022/03/03 10:21:49;;;;;;;12.50;8.27;;;;;;;;;;4448126;32;20300;-55
2022/03/03 10:24:24;;;;;;;25.40;14.73;;;;;;;;;;4448474;32;20314;-55
2022/03/03 10:27:05;;;;;;;13.77;9.53;;;;;;;;;;4448869;32;20281;-57
2022/03/03 10:29:31;;;;;;;18.00;9.60;;;;;;;;;;4449058;32;20736;-57
2022/03/03 10:31:58;;;;;;;14.77;9.60;;;;;;;;;;4440540;32;20311;-57
2022/03/03 10:34:28;;;;;;;12.67;8.20;;;;;;;;;;4460006;32;20303;-54
2022/03/03 10:37:01;;;;;;;16.63;10.23;;;;;;;;;;4464298;32;20567;-56
2022/03/03 10:39:39;;;;;;;12.90;8.97;;;;;;;;;;4464375;32;20228;-55
2022/03/03 10:42:15;;;;;;;10.87;8.33;;;;;;;;;;4450263;32;20788;-56
2022/03/03 10:44:40;;;;;;;15.60;10.40;;;;;;;;;;4464321;32;20254;-55
2022/03/03 10:47:07;;;;;;;18.70;11.37;;;;;;;;;;4464022;32;20291;-57
2022/03/03 10:49:35;;;;;;;13.73;9.17;;;;;;;;;;4463993;32;20651;-57
2022/03/03 10:52:33;;;;;;;16.57;9.73;;;;;;;;;;4464168;32;20263;-56
2022/03/03 10:55:02;;;;;;;12.03;8.80;;;;;;;;;;4449232;32;20264;-56
2022/03/03 10:57:38;;;;;;;13.10;10.47;;;;;;;;;;4464190;32;20286;-56
2022/03/03 11:00:09;;;;;;;19.43;12.50;;;;;;;;;;4464432;32;20389;-56
2022/03/03 11:02:35;;;;;;;16.93;10.07;;;;;;;;;;4463658;32;20292;-55
2022/03/03 11:05:01;;;;;;;13.77;10.50;;;;;;;;;;4463980;32;20329;-55
2022/03/03 11:07:27;;;;;;;60.53;28.77;;;;;;;;;;4463892;32;20448;-55
2022/03/03 11:09:54;;;;;;;28.40;15.50;;;;;;;;;;4463921;32;20255;-55
2022/03/03 11:12:19;;;;;;;30.57;16.30;;;;;;;;;;4463781;32;20265;-56
2022/03/03 11:14:46;;;;;;;27.07;13.23;;;;;;;;;;4463810;32;20285;-55
2022/03/03 11:17:13;;;;;;;24.47;13.53;;;;;;;;;;4463649;32;20235;-55
2022/03/03 11:19:38;;;;;;;14.90;9.57;;;;;;;;;;4448928;32;20239;-55
2022/03/03 11:22:04;;;;;;;24.20;13.40;;;;;;;;;;4449829;32;20681;-55
2022/03/03 11:24:37;;;;;;;17.53;10.33;;;;;;;;;;4463676;32;20322;-56
2022/03/03 11:27:03;;;;;;;224.77;86.27;;;;;;;;;;4463766;32;20220;-56
2022/03/03 11:29:32;;;;;;;60.90;25.53;;;;;;;;;;4449428;32;20263;-56
2022/03/03 11:32:07;;;;;;;13.03;9.40;;;;;;;;;;4463764;32;20960;-57
2022/03/03 11:34:41;;;;;;;15.07;9.33;;;;;;;;;;4463041;32;20270;-55
2022/03/03 11:37:12;;;;;;;23.70;9.27;;;;;;;;;;4462290;32;20223;-55
2022/03/03 11:39:45;;;;;;;11.60;8.03;;;;;;;;;;4463143;32;20232;-57
2022/03/03 11:42:28;;;;;;;24.97;12.53;;;;;;;;;;4463519;32;20288;-55
2022/03/03 11:44:57;;;;;;;23.53;11.30;;;;;;;;;;4463328;32;20232;-55
2022/03/03 11:47:31;;;;;;;11.83;7.80;;;;;;;;;;4463282;32;20238;-56
2022/03/03 11:50:07;;;;;;;16.20;8.63;;;;;;;;;;4463380;32;20270;-55
2022/03/03 11:52:34;;;;;;;8.20;6.27;;;;;;;;;;4449021;32;20240;-54
2022/03/03 11:55:26;;;;;;;17.83;9.20;;;;;;;;;;4463371;32;20244;-55
2022/03/03 11:58:04;;;;;;;12.67;7.40;;;;;;;;;;4463941;32;20307;-55
2022/03/03 12:00:33;;;;;;;16.30;8.77;;;;;;;;;;4463351;32;20655;-55
2022/03/03 12:03:05;;;;;;;17.53;8.60;;;;;;;;;;4463144;32;20212;-55
2022/03/03 12:05:32;;;;;;;30.30;12.67;;;;;;;;;;4462986;32;20998;-55
2022/03/03 12:08:11;;;;;;;26.67;12.00;;;;;;;;;;4463388;32;20626;-55
2022/03/03 12:10:38;;;;;;;24.70;13.40;;;;;;;;;;4462865;32;20708;-55
2022/03/03 12:13:23;;;;;;;15.43;9.97;;;;;;;;;;4463107;32;20688;-55
2022/03/03 12:16:19;;;;;;;24.50;13.57;;;;;;;;;;4463183;32;20227;-56
2022/03/03 12:18:55;;;;;;;25.63;8.87;;;;;;;;;;4463216;32;20576;-56
2022/03/03 12:21:30;;;;;;;16.43;10.27;;;;;;;;;;4436462;32;20287;-55
2022/03/03 12:24:30;;;;;;;25.63;13.13;;;;;;;;;;4448819;32;20427;-56
2022/03/03 12:26:59;;;;;;;12.63;9.00;;;;;;;;;;4435663;32;20374;-57
2022/03/03 12:29:39;;;;;;;12.00;8.40;;;;;;;;;;4463073;32;20235;-55
2022/03/03 12:32:27;;;;;;;12.63;8.60;;;;;;;;;;4462732;32;20521;-55
2022/03/03 12:34:54;;;;;;;10.17;7.50;;;;;;;;;;4462420;32;20728;-55
2022/03/03 12:37:20;;;;;;;13.93;8.53;;;;;;;;;;4458541;32;20250;-56
2022/03/03 12:39:48;;;;;;;15.63;9.47;;;;;;;;;;4432827;32;20276;-55
2022/03/03 12:42:18;;;;;;;19.90;10.43;;;;;;;;;;4447735;32;20831;-56
2022/03/03 12:44:52;;;;;;;15.10;8.17;;;;;;;;;;4447424;32;20332;-56
2022/03/03 12:47:30;;;;;;;9.50;6.97;;;;;;;;;;4447779;32;20286;-57
2022/03/03 12:49:55;;;;;;;16.90;8.30;;;;;;;;;;4433168;32;20251;-56
2022/03/03 12:52:22;;;;;;;11.37;7.37;;;;;;;;;;4447224;32;20831;-57
2022/03/03 12:54:55;;;;;;;16.63;8.63;;;;;;;;;;4447882;32;20427;-56
2022/03/03 12:57:32;;;;;;;13.30;8.50;;;;;;;;;;4450454;32;20278;-57
2022/03/03 12:59:59;;;;;;;11.93;8.80;;;;;;;;;;4450209;32;20383;-55
2022/03/03 13:02:25;;;;;;;11.60;6.27;;;;;;;;;;4450357;32;20217;-56
2022/03/03 13:04:50;;;;;;;6.73;5.30;;;;;;;;;;4450078;32;20762;-57
2022/03/03 13:07:17;;;;;;;645.57;341.73;;;;;;;;;;4436143;32;20356;-54
2022/03/03 13:09:53;;;;;;;138.80;73.30;;;;;;;;;;4450102;32;20556;-55
2022/03/03 13:12:18;;;;;;;32.10;18.43;;;;;;;;;;4450531;32;20283;-56
2022/03/03 13:14:54;;;;;;;19.30;11.27;;;;;;;;;;4450021;32;20327;-57
2022/03/03 13:17:19;;;;;;;23.07;11.40;;;;;;;;;;4450281;32;20287;-56
2022/03/03 13:19:49;;;;;;;28.17;14.40;;;;;;;;;;4439275;32;20235;-56
2022/03/03 13:22:15;;;;;;;14.97;9.43;;;;;;;;;;4465396;32;20335;-56
2022/03/03 13:24:40;;;;;;;14.67;9.27;;;;;;;;;;4465407;32;20576;-56
2022/03/03 13:27:05;;;;;;;21.77;12.00;;;;;;;;;;4465250;32;20249;-56
2022/03/03 13:29:35;;;;;;;36.63;12.33;;;;;;;;;;4450829;32;20219;-56
2022/03/03 13:32:13;;;;;;;18.57;9.30;;;;;;;;;;4451847;32;20234;-56
2022/03/03 13:34:43;;;;;;;12.27;6.50;;;;;;;;;;4464991;32;20258;-56
2022/03/03 13:37:19;;;;;;;7.87;5.73;;;;;;;;;;4462076;32;20234;-56
2022/03/03 13:39:45;;;;;;;9.57;6.53;;;;;;;;;;4449850;32;20255;-55
2022/03/03 13:42:16;;;;;;;6.73;4.97;;;;;;;;;;4449678;32;20315;-58
2022/03/03 13:44:57;;;;;;;10.60;7.07;;;;;;;;;;4449317;32;20338;-55
2022/03/03 13:47:28;;;;;;;9.43;6.23;;;;;;;;;;4449557;32;20235;-54
2022/03/03 13:49:54;;;;;;;7.87;5.33;;;;;;;;;;4435627;32;20283;-57
2022/03/03 13:52:27;;;;;;;7.70;5.23;;;;;;;;;;4434847;32;20243;-56
2022/03/03 13:55:02;;;;;;;8.43;5.73;;;;;;;;;;4449423;32;20229;-55
2022/03/03 13:57:53;;;;;;;11.87;6.70;;;;;;;;;;4435440;32;20224;-57
2022/03/03 14:00:33;;;;;;;14.80;8.40;;;;;;;;;;4447984;32;20252;-55
2022/03/03 14:03:12;;;;;;;13.23;7.93;;;;;;;;;;4449217;32;20212;-56
2022/03/03 14:05:44;;;;;;;10.77;7.23;;;;;;;;;;4448272;32;20228;-55
2022/03/03 14:08:23;;;;;;;12.87;7.83;;;;;;;;;;4448715;32;20258;-55
2022/03/03 14:10:56;;;;;;;13.77;7.50;;;;;;;;;;4449412;32;20231;-54
2022/03/03 14:13:23;;;;;;;11.77;7.67;;;;;;;;;;4449707;32;20297;-55
2022/03/03 14:15:50;;;;;;;19.80;6.93;;;;;;;;;;4434973;32;20256;-56
2022/03/03 14:18:17;;;;;;;12.77;7.60;;;;;;;;;;4449471;32;20217;-55
2022/03/03 14:20:44;;;;;;;11.03;6.97;;;;;;;;;;4449970;32;20715;-55
2022/03/03 14:23:10;;;;;;;13.13;8.17;;;;;;;;;;4450394;32;20236;-55
2022/03/03 14:25:36;;;;;;;15.97;7.53;;;;;;;;;;4464412;32;20657;-55
2022/03/03 14:28:02;;;;;;;10.57;6.80;;;;;;;;;;4464650;32;20311;-61
2022/03/03 14:30:28;;;;;;;11.03;7.30;;;;;;;;;;4464602;32;20262;-56
2022/03/03 14:32:54;;;;;;;7.93;6.37;;;;;;;;;;4464616;32;20587;-58